sensor_id;sensor_type;location;lat;lon;timestamp;temperature;humidity
45008;DHT22;30743;52.008;5.644;2024-03-23T00:53:44;13.80;99.90
45008;DHT22;30743;52.008;5.644;2024-03-23T00:56:09;13.90;99.90
45008;DHT22;30743;52.008;5.644;2024-03-23T00:58:35;14.00;99.90
45008;DHT22;30743;52.008;5.644;2024-03-23T01:01:01;13.90;99.90
45008;DHT22;30743;52.008;5.644;2024-03-23T01:03:29;13.80;99.90
45008;DHT22;30743;52.008;5.644;2024-03-23T01:05:54;13.80;99.90
45008;DHT22;30743;52.008;5.644;2024-03-23T01:08:20;13.80;99.90
45008;DHT22;30743;52.008;5.644;2024-03-23T01:10:59;13.90;99.90
45008;DHT22;30743;52.008;5.644;2024-03-23T01:13:25;13.80;99.90
45008;DHT22;30743;52.008;5.644;2024-03-23T01:15:51;13.70;99.90
45008;DHT22;30743;52.008;5.644;2024-03-23T01:18:18;13.60;99.90
45008;DHT22;30743;52.008;5.644;2024-03-23T01:20:43;13.60;99.90
45008;DHT22;30743;52.008;5.644;2024-03-23T01:23:09;13.60;99.90
45008;DHT22;30743;52.008;5.644;2024-03-23T01:25:34;13.50;99.90
45008;DHT22;30743;52.008;5.644;2024-03-23T01:28:00;13.50;99.90
45008;DHT22;30743;52.008;5.644;2024-03-23T01:30:25;13.50;99.90
45008;DHT22;30743;52.008;5.644;2024-03-23T01:32:51;13.60;99.90
45008;DHT22;30743;52.008;5.644;2024-03-23T01:35:16;13.60;99.90
45008;DHT22;30743;52.008;5.644;2024-03-23T01:37:42;13.40;99.90
45008;DHT22;30743;52.008;5.644;2024-03-23T01:40:08;13.60;99.90
45008;DHT22;30743;52.008;5.644;2024-03-23T01:42:33;13.60;99.90
45008;DHT22;30743;52.008;5.644;2024-03-23T01:44:59;13.70;99.90
45008;DHT22;30743;52.008;5.644;2024-03-23T01:47:25;13.60;99.90
45008;DHT22;30743;52.008;5.644;2024-03-23T01:49:50;13.40;99.90
45008;DHT22;30743;52.008;5.644;2024-03-23T01:52:17;13.60;99.90
45008;DHT22;30743;52.008;5.644;2024-03-23T01:54:43;13.60;99.90
45008;DHT22;30743;52.008;5.644;2024-03-23T01:57:08;13.50;99.90
45008;DHT22;30743;52.008;5.644;2024-03-23T01:59:34;13.40;99.90
45008;DHT22;30743;52.008;5.644;2024-03-23T02:02:01;13.40;99.90
45008;DHT22;30743;52.008;5.644;2024-03-23T02:04:26;13.50;99.90
45008;DHT22;30743;52.008;5.644;2024-03-23T02:06:52;13.50;99.90
45008;DHT22;30743;52.008;5.644;2024-03-23T02:09:17;13.60;99.90
45008;DHT22;30743;52.008;5.644;2024-03-23T02:11:43;13.50;99.90
45008;DHT22;30743;52.008;5.644;2024-03-23T02:14:09;13.50;99.90
45008;DHT22;30743;52.008;5.644;2024-03-23T02:16:34;13.50;99.90
45008;DHT22;30743;52.008;5.644;2024-03-23T02:19:00;13.30;99.90
45008;DHT22;30743;52.008;5.644;2024-03-23T02:21:25;13.40;99.90
45008;DHT22;30743;52.008;5.644;2024-03-23T02:23:53;13.40;99.90
45008;DHT22;30743;52.008;5.644;2024-03-23T02:26:18;13.50;99.90
45008;DHT22;30743;52.008;5.644;2024-03-23T02:28:44;13.40;99.90
45008;DHT22;30743;52.008;5.644;2024-03-23T02:31:09;13.40;99.90
45008;DHT22;30743;52.008;5.644;2024-03-23T02:33:35;13.40;99.90
45008;DHT22;30743;52.008;5.644;2024-03-23T02:36:03;13.30;99.90
45008;DHT22;30743;52.008;5.644;2024-03-23T02:38:29;13.30;99.90
45008;DHT22;30743;52.008;5.644;2024-03-23T02:40:54;13.20;99.90
45008;DHT22;30743;52.008;5.644;2024-03-23T02:43:20;13.30;99.90
45008;DHT22;30743;52.008;5.644;2024-03-23T02:45:46;13.10;99.90
45008;DHT22;30743;52.008;5.644;2024-03-23T02:48:11;13.10;99.90
45008;DHT22;30743;52.008;5.644;2024-03-23T02:50:37;12.80;99.90
45008;DHT22;30743;52.008;5.644;2024-03-23T02:53:03;12.60;99.90
45008;DHT22;30743;52.008;5.644;2024-03-23T02:55:29;12.50;99.90
45008;DHT22;30743;52.008;5.644;2024-03-23T02:57:54;12.30;99.90
45008;DHT22;30743;52.008;5.644;2024-03-23T03:00:21;12.20;99.90
45008;DHT22;30743;52.008;5.644;2024-03-23T03:02:46;12.10;99.90
45008;DHT22;30743;52.008;5.644;2024-03-23T03:05:12;12.10;99.90
45008;DHT22;30743;52.008;5.644;2024-03-23T03:07:39;12.10;99.90
45008;DHT22;30743;52.008;5.644;2024-03-23T03:10:06;12.00;99.90
45008;DHT22;30743;52.008;5.644;2024-03-23T03:12:34;11.90;99.90
45008;DHT22;30743;52.008;5.644;2024-03-23T03:14:59;11.90;99.90
45008;DHT22;30743;52.008;5.644;2024-03-23T03:17:25;11.90;99.90
45008;DHT22;30743;52.008;5.644;2024-03-23T03:19:50;11.80;99.90
45008;DHT22;30743;52.008;5.644;2024-03-23T03:22:21;11.80;99.90
45008;DHT22;30743;52.008;5.644;2024-03-23T03:24:46;11.90;99.90
45008;DHT22;30743;52.008;5.644;2024-03-23T03:27:12;11.90;99.90
45008;DHT22;30743;52.008;5.644;2024-03-23T03:29:38;11.90;99.90
45008;DHT22;30743;52.008;5.644;2024-03-23T03:32:03;11.80;99.90
45008;DHT22;30743;52.008;5.644;2024-03-23T03:34:29;11.60;99.90
45008;DHT22;30743;52.008;5.644;2024-03-23T03:36:55;11.60;99.90
45008;DHT22;30743;52.008;5.644;2024-03-23T03:39:21;11.60;99.90
45008;DHT22;30743;52.008;5.644;2024-03-23T03:41:48;11.70;99.90
45008;DHT22;30743;52.008;5.644;2024-03-23T03:46:39;11.70;99.90
45008;DHT22;30743;52.008;5.644;2024-03-23T03:49:05;11.60;99.90
45008;DHT22;30743;52.008;5.644;2024-03-23T03:51:30;11.60;99.90
45008;DHT22;30743;52.008;5.644;2024-03-23T03:53:56;11.60;99.90
45008;DHT22;30743;52.008;5.644;2024-03-23T03:56:22;11.70;99.90
45008;DHT22;30743;52.008;5.644;2024-03-23T03:58:48;11.70;99.90
45008;DHT22;30743;52.008;5.644;2024-03-23T04:01:14;11.70;99.90
45008;DHT22;30743;52.008;5.644;2024-03-23T04:03:39;11.70;99.90
45008;DHT22;30743;52.008;5.644;2024-03-23T04:06:11;11.70;99.90
45008;DHT22;30743;52.008;5.644;2024-03-23T04:08:37;11.70;99.90
45008;DHT22;30743;52.008;5.644;2024-03-23T04:11:02;11.90;99.90
45008;DHT22;30743;52.008;5.644;2024-03-23T04:13:28;11.50;99.90
45008;DHT22;30743;52.008;5.644;2024-03-23T04:15:54;11.50;99.90
45008;DHT22;30743;52.008;5.644;2024-03-23T04:18:20;11.50;99.90
45008;DHT22;30743;52.008;5.644;2024-03-23T04:20:47;11.40;99.90
45008;DHT22;30743;52.008;5.644;2024-03-23T04:23:12;11.30;99.90
45008;DHT22;30743;52.008;5.644;2024-03-23T04:25:38;11.20;99.90
45008;DHT22;30743;52.008;5.644;2024-03-23T04:28:04;11.30;99.90
45008;DHT22;30743;52.008;5.644;2024-03-23T04:30:30;11.30;99.90
45008;DHT22;30743;52.008;5.644;2024-03-23T04:32:57;11.30;99.90
45008;DHT22;30743;52.008;5.644;2024-03-23T04:35:26;11.30;99.90
45008;DHT22;30743;52.008;5.644;2024-03-23T04:37:53;11.40;99.90
45008;DHT22;30743;52.008;5.644;2024-03-23T04:40:18;11.50;99.90
45008;DHT22;30743;52.008;5.644;2024-03-23T04:42:44;11.50;99.90
45008;DHT22;30743;52.008;5.644;2024-03-23T04:45:10;11.40;99.90
45008;DHT22;30743;52.008;5.644;2024-03-23T04:47:37;11.30;99.90
45008;DHT22;30743;52.008;5.644;2024-03-23T04:50:03;11.30;99.90
45008;DHT22;30743;52.008;5.644;2024-03-23T04:52:29;11.20;99.90
45008;DHT22;30743;52.008;5.644;2024-03-23T04:54:55;10.90;99.90
45008;DHT22;30743;52.008;5.644;2024-03-23T04:57:21;10.70;99.90
45008;DHT22;30743;52.008;5.644;2024-03-23T04:59:46;10.50;99.90
45008;DHT22;30743;52.008;5.644;2024-03-23T05:02:13;10.20;99.90
45008;DHT22;30743;52.008;5.644;2024-03-23T05:04:38;10.00;99.90
45008;DHT22;30743;52.008;5.644;2024-03-23T05:07:06;10.10;99.90
45008;DHT22;30743;52.008;5.644;2024-03-23T05:09:31;10.00;99.90
45008;DHT22;30743;52.008;5.644;2024-03-23T05:12:01;9.80;99.90
45008;DHT22;30743;52.008;5.644;2024-03-23T05:14:27;9.90;99.90
45008;DHT22;30743;52.008;5.644;2024-03-23T05:16:53;9.90;99.90
45008;DHT22;30743;52.008;5.644;2024-03-23T05:19:18;9.90;99.90
45008;DHT22;30743;52.008;5.644;2024-03-23T05:21:44;9.90;99.90
45008;DHT22;30743;52.008;5.644;2024-03-23T05:24:10;9.80;99.90
45008;DHT22;30743;52.008;5.644;2024-03-23T05:26:35;9.90;99.90
45008;DHT22;30743;52.008;5.644;2024-03-23T05:29:02;9.90;99.90
45008;DHT22;30743;52.008;5.644;2024-03-23T05:31:29;10.00;99.90
45008;DHT22;30743;52.008;5.644;2024-03-23T05:33:55;10.00;99.90
45008;DHT22;30743;52.008;5.644;2024-03-23T05:36:21;10.00;99.90
45008;DHT22;30743;52.008;5.644;2024-03-23T05:38:47;10.00;99.90
45008;DHT22;30743;52.008;5.644;2024-03-23T05:41:13;10.10;99.90
45008;DHT22;30743;52.008;5.644;2024-03-23T05:43:39;10.10;99.90
45008;DHT22;30743;52.008;5.644;2024-03-23T05:46:04;10.10;99.90
45008;DHT22;30743;52.008;5.644;2024-03-23T05:48:34;10.10;99.90
45008;DHT22;30743;52.008;5.644;2024-03-23T05:50:59;10.00;99.90
45008;DHT22;30743;52.008;5.644;2024-03-23T05:53:25;10.00;99.90
45008;DHT22;30743;52.008;5.644;2024-03-23T05:55:51;9.80;99.90
45008;DHT22;30743;52.008;5.644;2024-03-23T05:58:25;9.70;99.90
45008;DHT22;30743;52.008;5.644;2024-03-23T06:00:57;9.50;99.90
45008;DHT22;30743;52.008;5.644;2024-03-23T06:03:23;9.40;99.90
45008;DHT22;30743;52.008;5.644;2024-03-23T06:05:49;9.60;99.90
45008;DHT22;30743;52.008;5.644;2024-03-23T06:08:14;9.80;99.90
45008;DHT22;30743;52.008;5.644;2024-03-23T06:10:40;10.10;99.90
45008;DHT22;30743;52.008;5.644;2024-03-23T06:13:06;10.10;99.90
45008;DHT22;30743;52.008;5.644;2024-03-23T06:15:31;10.20;99.90
45008;DHT22;30743;52.008;5.644;2024-03-23T06:17:57;10.40;99.90
45008;DHT22;30743;52.008;5.644;2024-03-23T06:20:23;10.40;99.90
45008;DHT22;30743;52.008;5.644;2024-03-23T06:22:49;10.40;99.90
45008;DHT22;30743;52.008;5.644;2024-03-23T06:25:15;10.50;99.90
45008;DHT22;30743;52.008;5.644;2024-03-23T06:27:40;10.40;99.90
45008;DHT22;30743;52.008;5.644;2024-03-23T06:30:06;10.50;99.90
45008;DHT22;30743;52.008;5.644;2024-03-23T06:32:32;10.60;99.90
45008;DHT22;30743;52.008;5.644;2024-03-23T06:34:58;10.80;99.90
45008;DHT22;30743;52.008;5.644;2024-03-23T06:37:23;10.50;99.90
45008;DHT22;30743;52.008;5.644;2024-03-23T06:39:49;10.50;99.90
45008;DHT22;30743;52.008;5.644;2024-03-23T06:42:14;10.30;99.90
45008;DHT22;30743;52.008;5.644;2024-03-23T06:44:40;10.30;99.90
45008;DHT22;30743;52.008;5.644;2024-03-23T06:47:06;10.40;99.90
45008;DHT22;30743;52.008;5.644;2024-03-23T06:49:31;10.40;99.90
45008;DHT22;30743;52.008;5.644;2024-03-23T06:51:57;10.50;99.90
45008;DHT22;30743;52.008;5.644;2024-03-23T06:54:24;10.60;99.90
45008;DHT22;30743;52.008;5.644;2024-03-23T06:56:50;10.60;99.90
45008;DHT22;30743;52.008;5.644;2024-03-23T06:59:15;10.80;99.90
45008;DHT22;30743;52.008;5.644;2024-03-23T07:01:41;10.70;99.90
45008;DHT22;30743;52.008;5.644;2024-03-23T07:04:07;10.90;99.90
45008;DHT22;30743;52.008;5.644;2024-03-23T07:06:33;11.00;99.90
45008;DHT22;30743;52.008;5.644;2024-03-23T07:08:59;11.10;99.90
45008;DHT22;30743;52.008;5.644;2024-03-23T07:11:25;11.30;99.90
45008;DHT22;30743;52.008;5.644;2024-03-23T07:13:51;11.50;99.90
45008;DHT22;30743;52.008;5.644;2024-03-23T07:16:17;11.50;99.90
45008;DHT22;30743;52.008;5.644;2024-03-23T07:18:43;11.70;99.90
45008;DHT22;30743;52.008;5.644;2024-03-23T07:21:09;11.70;99.90
45008;DHT22;30743;52.008;5.644;2024-03-23T07:23:34;11.90;99.90
45008;DHT22;30743;52.008;5.644;2024-03-23T07:26:04;12.00;99.90
45008;DHT22;30743;52.008;5.644;2024-03-23T07:28:31;12.30;99.90
45008;DHT22;30743;52.008;5.644;2024-03-23T07:31:07;12.40;99.90
45008;DHT22;30743;52.008;5.644;2024-03-23T07:33:48;12.30;99.90
45008;DHT22;30743;52.008;5.644;2024-03-23T07:36:14;12.60;99.90
45008;DHT22;30743;52.008;5.644;2024-03-23T07:38:43;12.70;99.90
45008;DHT22;30743;52.008;5.644;2024-03-23T07:41:17;12.70;99.90
45008;DHT22;30743;52.008;5.644;2024-03-23T07:43:43;12.80;99.90
45008;DHT22;30743;52.008;5.644;2024-03-23T07:46:09;12.70;99.90
45008;DHT22;30743;52.008;5.644;2024-03-23T07:48:35;13.00;99.90
45008;DHT22;30743;52.008;5.644;2024-03-23T07:51:01;13.20;99.90
45008;DHT22;30743;52.008;5.644;2024-03-23T07:53:28;13.40;99.90
45008;DHT22;30743;52.008;5.644;2024-03-23T07:55:59;14.20;99.90
45008;DHT22;30743;52.008;5.644;2024-03-23T07:58:26;14.70;99.90
45008;DHT22;30743;52.008;5.644;2024-03-23T08:00:55;14.90;99.90
45008;DHT22;30743;52.008;5.644;2024-03-23T08:03:21;15.30;99.90
45008;DHT22;30743;52.008;5.644;2024-03-23T08:05:47;15.30;99.90
45008;DHT22;30743;52.008;5.644;2024-03-23T08:08:13;15.30;99.90
45008;DHT22;30743;52.008;5.644;2024-03-23T08:10:52;15.30;99.90
45008;DHT22;30743;52.008;5.644;2024-03-23T08:13:18;15.20;99.90
45008;DHT22;30743;52.008;5.644;2024-03-23T08:15:44;15.50;99.90
45008;DHT22;30743;52.008;5.644;2024-03-23T08:18:11;15.30;99.90
45008;DHT22;30743;52.008;5.644;2024-03-23T08:20:37;15.10;99.90
45008;DHT22;30743;52.008;5.644;2024-03-23T08:23:04;15.20;99.90
45008;DHT22;30743;52.008;5.644;2024-03-23T08:25:33;15.00;99.90
45008;DHT22;30743;52.008;5.644;2024-03-23T08:27:59;14.60;99.90
45008;DHT22;30743;52.008;5.644;2024-03-23T08:30:25;15.10;99.90
45008;DHT22;30743;52.008;5.644;2024-03-23T08:32:51;15.90;99.90
45008;DHT22;30743;52.008;5.644;2024-03-23T08:35:17;15.90;99.90
45008;DHT22;30743;52.008;5.644;2024-03-23T08:37:43;15.60;99.90
45008;DHT22;30743;52.008;5.644;2024-03-23T08:40:09;15.60;99.90
45008;DHT22;30743;52.008;5.644;2024-03-23T08:42:35;15.30;99.90
45008;DHT22;30743;52.008;5.644;2024-03-23T08:45:00;15.10;99.90
45008;DHT22;30743;52.008;5.644;2024-03-23T08:47:26;14.70;99.90
45008;DHT22;30743;52.008;5.644;2024-03-23T08:49:52;14.20;99.90
45008;DHT22;30743;52.008;5.644;2024-03-23T08:52:17;13.90;99.90
45008;DHT22;30743;52.008;5.644;2024-03-23T08:54:43;13.50;99.90
45008;DHT22;30743;52.008;5.644;2024-03-23T08:57:09;13.20;99.90
45008;DHT22;30743;52.008;5.644;2024-03-23T08:59:34;12.80;99.90
45008;DHT22;30743;52.008;5.644;2024-03-23T09:02:00;12.60;99.90
45008;DHT22;30743;52.008;5.644;2024-03-23T09:04:25;11.90;99.90
45008;DHT22;30743;52.008;5.644;2024-03-23T09:06:51;11.90;99.90
45008;DHT22;30743;52.008;5.644;2024-03-23T09:09:17;11.70;99.90
45008;DHT22;30743;52.008;5.644;2024-03-23T09:11:43;11.50;99.90
45008;DHT22;30743;52.008;5.644;2024-03-23T09:14:08;11.60;99.90
45008;DHT22;30743;52.008;5.644;2024-03-23T09:16:34;11.70;99.90
45008;DHT22;30743;52.008;5.644;2024-03-23T09:19:00;12.50;99.90
45008;DHT22;30743;52.008;5.644;2024-03-23T09:21:26;13.50;99.90
45008;DHT22;30743;52.008;5.644;2024-03-23T09:23:51;14.80;99.90
45008;DHT22;30743;52.008;5.644;2024-03-23T09:26:17;16.00;99.90
45008;DHT22;30743;52.008;5.644;2024-03-23T09:28:42;16.80;99.90
45008;DHT22;30743;52.008;5.644;2024-03-23T09:31:09;17.30;99.90
45008;DHT22;30743;52.008;5.644;2024-03-23T09:33:36;17.80;99.90
45008;DHT22;30743;52.008;5.644;2024-03-23T09:36:05;17.90;99.90
45008;DHT22;30743;52.008;5.644;2024-03-23T09:38:31;18.00;99.90
45008;DHT22;30743;52.008;5.644;2024-03-23T09:40:58;18.00;99.90
45008;DHT22;30743;52.008;5.644;2024-03-23T09:43:24;18.50;99.90
45008;DHT22;30743;52.008;5.644;2024-03-23T09:45:51;18.70;99.90
45008;DHT22;30743;52.008;5.644;2024-03-23T09:48:17;18.50;99.90
45008;DHT22;30743;52.008;5.644;2024-03-23T09:50:44;17.90;99.90
45008;DHT22;30743;52.008;5.644;2024-03-23T09:53:12;17.80;99.90
45008;DHT22;30743;52.008;5.644;2024-03-23T09:55:38;17.40;99.90
45008;DHT22;30743;52.008;5.644;2024-03-23T09:58:04;16.90;99.90
45008;DHT22;30743;52.008;5.644;2024-03-23T10:00:31;16.40;99.90
45008;DHT22;30743;52.008;5.644;2024-03-23T10:02:58;16.00;99.90
45008;DHT22;30743;52.008;5.644;2024-03-23T10:05:27;16.40;99.90
45008;DHT22;30743;52.008;5.644;2024-03-23T10:07:53;17.10;99.90
45008;DHT22;30743;52.008;5.644;2024-03-23T10:10:19;17.50;99.90
45008;DHT22;30743;52.008;5.644;2024-03-23T10:12:45;17.40;99.90
45008;DHT22;30743;52.008;5.644;2024-03-23T10:15:23;17.60;99.90
45008;DHT22;30743;52.008;5.644;2024-03-23T10:17:49;16.80;99.90
45008;DHT22;30743;52.008;5.644;2024-03-23T10:20:19;15.70;99.90
45008;DHT22;30743;52.008;5.644;2024-03-23T10:22:48;14.10;99.90
45008;DHT22;30743;52.008;5.644;2024-03-23T10:25:13;13.40;99.90
45008;DHT22;30743;52.008;5.644;2024-03-23T10:27:39;13.40;99.90
45008;DHT22;30743;52.008;5.644;2024-03-23T10:30:09;13.80;99.90
45008;DHT22;30743;52.008;5.644;2024-03-23T10:32:35;14.50;99.90
45008;DHT22;30743;52.008;5.644;2024-03-23T10:35:20;15.10;99.90
45008;DHT22;30743;52.008;5.644;2024-03-23T10:37:49;15.80;99.90
45008;DHT22;30743;52.008;5.644;2024-03-23T10:40:15;15.90;99.90
45008;DHT22;30743;52.008;5.644;2024-03-23T10:42:42;15.60;99.90
45008;DHT22;30743;52.008;5.644;2024-03-23T10:45:08;15.60;99.90
45008;DHT22;30743;52.008;5.644;2024-03-23T10:47:38;15.60;99.90
45008;DHT22;30743;52.008;5.644;2024-03-23T10:50:03;15.50;99.90
45008;DHT22;30743;52.008;5.644;2024-03-23T10:52:31;15.50;99.90
45008;DHT22;30743;52.008;5.644;2024-03-23T10:54:57;15.70;99.90
45008;DHT22;30743;52.008;5.644;2024-03-23T10:57:29;16.30;99.90
45008;DHT22;30743;52.008;5.644;2024-03-23T10:59:57;16.80;99.90
45008;DHT22;30743;52.008;5.644;2024-03-23T11:02:23;16.60;99.90
45008;DHT22;30743;52.008;5.644;2024-03-23T11:04:48;16.40;99.90
45008;DHT22;30743;52.008;5.644;2024-03-23T11:09:55;16.40;99.90
45008;DHT22;30743;52.008;5.644;2024-03-23T11:14:51;16.00;99.90
45008;DHT22;30743;52.008;5.644;2024-03-23T11:17:21;16.30;99.90
45008;DHT22;30743;52.008;5.644;2024-03-23T11:19:58;16.40;99.90
45008;DHT22;30743;52.008;5.644;2024-03-23T11:27:42;16.20;99.90
45008;DHT22;30743;52.008;5.644;2024-03-23T11:30:15;16.00;99.90
45008;DHT22;30743;52.008;5.644;2024-03-23T11:32:49;15.90;99.90
45008;DHT22;30743;52.008;5.644;2024-03-23T11:35:34;16.10;99.90
45008;DHT22;30743;52.008;5.644;2024-03-23T11:38:08;16.70;99.90
45008;DHT22;30743;52.008;5.644;2024-03-23T11:40:38;17.00;99.90
45008;DHT22;30743;52.008;5.644;2024-03-23T11:43:08;17.10;99.90
45008;DHT22;30743;52.008;5.644;2024-03-23T11:45:39;17.10;99.90
45008;DHT22;30743;52.008;5.644;2024-03-23T11:48:10;16.60;99.90
45008;DHT22;30743;52.008;5.644;2024-03-23T11:50:38;16.20;99.90
45008;DHT22;30743;52.008;5.644;2024-03-23T11:55:49;14.40;99.90
45008;DHT22;30743;52.008;5.644;2024-03-23T11:58:16;13.70;99.90
45008;DHT22;30743;52.008;5.644;2024-03-23T12:00:48;13.20;99.90
45008;DHT22;30743;52.008;5.644;2024-03-23T12:03:16;13.30;99.90
45008;DHT22;30743;52.008;5.644;2024-03-23T12:05:41;13.60;99.90
45008;DHT22;30743;52.008;5.644;2024-03-23T12:08:24;14.20;99.90
45008;DHT22;30743;52.008;5.644;2024-03-23T12:11:06;15.10;99.90
45008;DHT22;30743;52.008;5.644;2024-03-23T12:13:33;15.50;99.90
45008;DHT22;30743;52.008;5.644;2024-03-23T12:16:18;15.80;99.90
45008;DHT22;30743;52.008;5.644;2024-03-23T12:18:47;15.60;99.90
45008;DHT22;30743;52.008;5.644;2024-03-23T12:21:13;16.00;99.90
45008;DHT22;30743;52.008;5.644;2024-03-23T12:23:41;16.20;99.90
45008;DHT22;30743;52.008;5.644;2024-03-23T12:26:09;16.10;99.90
45008;DHT22;30743;52.008;5.644;2024-03-23T12:28:35;15.80;99.90
45008;DHT22;30743;52.008;5.644;2024-03-23T12:31:01;15.50;99.90
45008;DHT22;30743;52.008;5.644;2024-03-23T12:33:26;14.80;99.90
45008;DHT22;30743;52.008;5.644;2024-03-23T12:35:52;14.60;99.90
45008;DHT22;30743;52.008;5.644;2024-03-23T12:38:19;14.50;99.90
45008;DHT22;30743;52.008;5.644;2024-03-23T12:40:48;14.30;99.90
45008;DHT22;30743;52.008;5.644;2024-03-23T12:43:14;14.40;99.90
45008;DHT22;30743;52.008;5.644;2024-03-23T12:45:40;14.60;99.90
45008;DHT22;30743;52.008;5.644;2024-03-23T12:48:06;15.20;99.90
45008;DHT22;30743;52.008;5.644;2024-03-23T12:50:32;15.80;99.90
45008;DHT22;30743;52.008;5.644;2024-03-23T12:52:58;16.10;99.90
45008;DHT22;30743;52.008;5.644;2024-03-23T12:55:24;16.60;99.90
45008;DHT22;30743;52.008;5.644;2024-03-23T12:57:49;16.70;99.90
45008;DHT22;30743;52.008;5.644;2024-03-23T13:00:15;17.00;99.90
45008;DHT22;30743;52.008;5.644;2024-03-23T13:02:44;16.70;99.90
45008;DHT22;30743;52.008;5.644;2024-03-23T13:05:10;16.30;99.90
45008;DHT22;30743;52.008;5.644;2024-03-23T13:07:35;15.70;99.90
45008;DHT22;30743;52.008;5.644;2024-03-23T13:10:03;15.30;99.90
45008;DHT22;30743;52.008;5.644;2024-03-23T13:12:29;15.10;99.90
45008;DHT22;30743;52.008;5.644;2024-03-23T13:14:54;15.00;99.90
45008;DHT22;30743;52.008;5.644;2024-03-23T13:17:20;14.70;99.90
45008;DHT22;30743;52.008;5.644;2024-03-23T13:19:45;14.70;99.90
45008;DHT22;30743;52.008;5.644;2024-03-23T13:22:11;14.70;99.90
45008;DHT22;30743;52.008;5.644;2024-03-23T13:24:37;14.80;99.90
45008;DHT22;30743;52.008;5.644;2024-03-23T13:27:03;14.90;99.90
45008;DHT22;30743;52.008;5.644;2024-03-23T13:29:30;14.90;99.90
45008;DHT22;30743;52.008;5.644;2024-03-23T13:31:56;14.30;99.90
45008;DHT22;30743;52.008;5.644;2024-03-23T13:34:22;14.10;99.90
45008;DHT22;30743;52.008;5.644;2024-03-23T13:36:47;14.10;99.90
45008;DHT22;30743;52.008;5.644;2024-03-23T13:39:14;14.10;99.90
45008;DHT22;30743;52.008;5.644;2024-03-23T13:41:44;13.90;99.90
45008;DHT22;30743;52.008;5.644;2024-03-23T13:44:11;13.70;99.90
45008;DHT22;30743;52.008;5.644;2024-03-23T13:46:37;14.00;99.90
45008;DHT22;30743;52.008;5.644;2024-03-23T13:49:04;14.20;99.90
45008;DHT22;30743;52.008;5.644;2024-03-23T13:51:30;14.30;99.90
45008;DHT22;30743;52.008;5.644;2024-03-23T13:53:56;14.50;99.90
45008;DHT22;30743;52.008;5.644;2024-03-23T13:56:25;14.10;99.90
45008;DHT22;30743;52.008;5.644;2024-03-23T13:58:50;13.90;99.90
45008;DHT22;30743;52.008;5.644;2024-03-23T14:01:16;14.00;99.90
45008;DHT22;30743;52.008;5.644;2024-03-23T14:03:42;14.30;99.90
45008;DHT22;30743;52.008;5.644;2024-03-23T14:06:09;14.60;99.90
45008;DHT22;30743;52.008;5.644;2024-03-23T14:08:35;15.00;99.90
45008;DHT22;30743;52.008;5.644;2024-03-23T14:11:04;15.40;99.90
45008;DHT22;30743;52.008;5.644;2024-03-23T14:13:30;15.50;99.90
45008;DHT22;30743;52.008;5.644;2024-03-23T14:15:56;15.20;99.90
45008;DHT22;30743;52.008;5.644;2024-03-23T14:18:22;15.00;99.90
45008;DHT22;30743;52.008;5.644;2024-03-23T14:20:58;14.60;99.90
45008;DHT22;30743;52.008;5.644;2024-03-23T14:23:25;14.10;99.90
45008;DHT22;30743;52.008;5.644;2024-03-23T14:25:53;13.60;99.90
45008;DHT22;30743;52.008;5.644;2024-03-23T14:28:19;13.30;99.90
45008;DHT22;30743;52.008;5.644;2024-03-23T14:30:44;13.00;99.90
45008;DHT22;30743;52.008;5.644;2024-03-23T14:33:10;12.90;99.90
45008;DHT22;30743;52.008;5.644;2024-03-23T14:35:36;12.70;99.90
45008;DHT22;30743;52.008;5.644;2024-03-23T14:38:02;12.90;99.90
45008;DHT22;30743;52.008;5.644;2024-03-23T14:40:28;12.90;99.90
45008;DHT22;30743;52.008;5.644;2024-03-23T14:42:56;13.00;99.90
45008;DHT22;30743;52.008;5.644;2024-03-23T14:45:22;13.30;99.90
45008;DHT22;30743;52.008;5.644;2024-03-23T14:47:50;13.70;99.90
45008;DHT22;30743;52.008;5.644;2024-03-23T14:50:15;14.20;99.90
45008;DHT22;30743;52.008;5.644;2024-03-23T14:52:47;14.40;99.90
45008;DHT22;30743;52.008;5.644;2024-03-23T14:55:13;14.70;99.90
45008;DHT22;30743;52.008;5.644;2024-03-23T14:57:39;14.70;99.90
45008;DHT22;30743;52.008;5.644;2024-03-23T15:00:09;14.70;99.90
45008;DHT22;30743;52.008;5.644;2024-03-23T15:02:38;14.70;99.90
45008;DHT22;30743;52.008;5.644;2024-03-23T15:05:05;14.70;99.90
45008;DHT22;30743;52.008;5.644;2024-03-23T15:07:33;14.60;99.90
45008;DHT22;30743;52.008;5.644;2024-03-23T15:09:59;14.40;99.90
45008;DHT22;30743;52.008;5.644;2024-03-23T15:12:24;13.80;99.90
45008;DHT22;30743;52.008;5.644;2024-03-23T15:14:50;13.70;99.90
45008;DHT22;30743;52.008;5.644;2024-03-23T15:17:15;13.60;99.90
45008;DHT22;30743;52.008;5.644;2024-03-23T15:19:41;13.70;99.90
45008;DHT22;30743;52.008;5.644;2024-03-23T15:22:08;13.90;99.90
45008;DHT22;30743;52.008;5.644;2024-03-23T15:24:34;13.90;99.90
45008;DHT22;30743;52.008;5.644;2024-03-23T15:27:01;13.80;99.90
45008;DHT22;30743;52.008;5.644;2024-03-23T15:29:26;13.70;99.90
45008;DHT22;30743;52.008;5.644;2024-03-23T15:31:52;13.60;99.90
45008;DHT22;30743;52.008;5.644;2024-03-23T15:34:19;13.70;99.90
45008;DHT22;30743;52.008;5.644;2024-03-23T15:36:47;13.80;99.90
45008;DHT22;30743;52.008;5.644;2024-03-23T15:39:14;13.70;99.90
45008;DHT22;30743;52.008;5.644;2024-03-23T15:41:40;14.00;99.90
45008;DHT22;30743;52.008;5.644;2024-03-23T15:44:05;13.60;99.90
45008;DHT22;30743;52.008;5.644;2024-03-23T15:46:31;13.70;99.90
45008;DHT22;30743;52.008;5.644;2024-03-23T15:48:57;13.70;99.90
45008;DHT22;30743;52.008;5.644;2024-03-23T15:51:22;13.30;99.90
45008;DHT22;30743;52.008;5.644;2024-03-23T15:53:48;13.00;99.90
45008;DHT22;30743;52.008;5.644;2024-03-23T15:56:13;12.70;99.90
45008;DHT22;30743;52.008;5.644;2024-03-23T15:58:39;12.40;99.90
45008;DHT22;30743;52.008;5.644;2024-03-23T16:01:08;12.10;99.90
45008;DHT22;30743;52.008;5.644;2024-03-23T16:03:35;12.30;99.90
45008;DHT22;30743;52.008;5.644;2024-03-23T16:06:02;12.60;99.90
45008;DHT22;30743;52.008;5.644;2024-03-23T16:08:29;12.10;99.90
45008;DHT22;30743;52.008;5.644;2024-03-23T16:10:59;12.10;99.90
45008;DHT22;30743;52.008;5.644;2024-03-23T16:13:24;12.00;99.90
45008;DHT22;30743;52.008;5.644;2024-03-23T16:16:02;12.10;99.90
45008;DHT22;30743;52.008;5.644;2024-03-23T16:18:38;11.70;99.90
45008;DHT22;30743;52.008;5.644;2024-03-23T16:21:05;11.60;99.90
45008;DHT22;30743;52.008;5.644;2024-03-23T16:23:32;11.40;99.90
45008;DHT22;30743;52.008;5.644;2024-03-23T16:25:58;11.40;99.90
45008;DHT22;30743;52.008;5.644;2024-03-23T16:28:36;11.40;99.90
45008;DHT22;30743;52.008;5.644;2024-03-23T16:31:07;11.30;99.90
45008;DHT22;30743;52.008;5.644;2024-03-23T16:33:34;11.20;99.90
45008;DHT22;30743;52.008;5.644;2024-03-23T16:36:02;11.10;99.90
45008;DHT22;30743;52.008;5.644;2024-03-23T16:38:30;10.90;99.90